Portada
METAR-TAF:

METAR-TAF

Aeroports :

Mae Sot, Tailàndia

latitud: 16-40N, longitud: 098-33E, altitud: 196 m

Observació

L'informe es va fer fa 54 minuts, a les 23:00 UTC
Vent calma
Temperatura 20°C
Humitat 94%
Pressió 1015 hPa
Visibilitat: 5000 m
boirina

METAR: VTPM 202300Z 00000KT 5000 BR NSC 20/19 Q1015 NOSIG

Hora: 06:54 (23:54 UTC)

Pronòstic

L'informe es va fer fa 54 minuts, a les 23:00 UTC
Pronòstic vàlid del 21 a les 00 UTC al 21 a les 24 UTC
Vent 5 kt del Oest
Visibilitat: 4000 m
Escasses núvols a una alçada de 3000 ft
boirina
Evolucionant progressivament
l' 21 a les 03 UTC al 21 a les 05 UTC
Visibilitat: 8000 m

TAF: VTPM 202300Z 2100/2124 26005KT 4000 BR FEW030 BECMG 2103/2105 8000 NSW

Observacions i pronòstics meteorològics de més de 4000 aeroports (METAR i TAF).

Les estacions disponibles són els punts grocs i vermells al mapa.

Posi el ratolí al punt desitjat per veure el nom de l'estació.

Feu clic per veure les observacions i els pronòstics meteorològics.

Per canviar el mapa: feu clic els botons verds amb una creu de color negre per apropar; al botó verd amb un guió per allunyar la imatge; o en les fletxes verdes per a mapes adjacents.


METAR-TAF: